Time;durP1;ratioP1;P1;durP2;ratioP2;P2;SDS_P1;SDS_P2;PMS_P1;PMS_P2;Temp;Humidity;BMP_temperature;BMP_pressure;BME280_temperature;BME280_humidity;BME280_pressure;Samples;Min_cycle;Max_cycle;Signal;HPM_P1;HPM_P2
2023/05/31 00:01:07;;;;;;;0.60;0.40;;;18.30;52.80;;;;;;5094609;28;20822;-58
2023/05/31 00:03:35;;;;;;;0.80;0.40;;;18.20;52.40;;;;;;5093223;28;20458;-59
2023/05/31 00:06:02;;;;;;;1.50;0.40;;;18.20;52.50;;;;;;5093246;28;20426;-59
2023/05/31 00:08:29;;;;;;;1.50;0.50;;;18.20;52.60;;;;;;5094303;28;20458;-62
2023/05/31 00:10:56;;;;;;;0.90;0.40;;;18.30;52.70;;;;;;5094452;28;20772;-59
2023/05/31 00:13:23;;;;;;;0.60;0.40;;;18.20;53.00;;;;;;5097715;28;20430;-63
2023/05/31 00:15:50;;;;;;;0.82;0.40;;;18.20;52.60;;;;;;5097253;28;20430;-58
2023/05/31 00:18:19;;;;;;;0.97;0.40;;;18.10;52.80;;;;;;5097154;28;20779;-59
2023/05/31 00:20:46;;;;;;;0.82;0.40;;;18.20;53.40;;;;;;5097476;28;20430;-60
2023/05/31 00:23:13;;;;;;;1.10;0.50;;;18.20;52.60;;;;;;5096871;28;20849;-61
2023/05/31 00:25:40;;;;;;;1.83;0.50;;;18.10;53.50;;;;;;5097899;28;20422;-60
2023/05/31 00:28:07;;;;;;;1.87;0.40;;;18.10;52.70;;;;;;5098491;28;20767;-60
2023/05/31 00:30:34;;;;;;;1.00;0.45;;;18.10;52.50;;;;;;5097666;28;20426;-59
2023/05/31 00:33:01;;;;;;;0.70;0.40;;;18.00;52.50;;;;;;5098264;28;20725;-58
2023/05/31 00:35:29;;;;;;;0.80;0.40;;;18.00;52.60;;;;;;5098261;28;20868;-60
2023/05/31 00:37:56;;;;;;;1.40;0.40;;;18.00;52.90;;;;;;5097772;28;20550;-59
2023/05/31 00:40:24;;;;;;;0.70;0.40;;;18.00;52.50;;;;;;5098082;28;20432;-60
2023/05/31 00:42:51;;;;;;;1.02;0.50;;;17.90;52.70;;;;;;5098076;28;20504;-62
2023/05/31 00:45:18;;;;;;;1.10;0.40;;;17.90;52.70;;;;;;5097605;28;20908;-59
2023/05/31 00:47:45;;;;;;;0.70;0.40;;;17.80;53.10;;;;;;5097763;28;20717;-59
2023/05/31 00:50:12;;;;;;;0.80;0.40;;;17.80;53.10;;;;;;5097767;28;20768;-59
2023/05/31 00:52:41;;;;;;;1.30;0.40;;;17.80;53.00;;;;;;5097248;28;20775;-59
2023/05/31 00:55:09;;;;;;;0.70;0.40;;;17.80;53.20;;;;;;5097571;28;20530;-61
2023/05/31 00:57:37;;;;;;;0.90;0.50;;;17.90;52.90;;;;;;5097234;28;20459;-57
2023/05/31 01:00:05;;;;;;;1.40;0.40;;;17.80;53.10;;;;;;5097311;28;20845;-59
2023/05/31 01:02:34;;;;;;;1.20;0.40;;;17.90;53.10;;;;;;5096874;28;20456;-59
2023/05/31 01:05:01;;;;;;;0.80;0.40;;;17.90;53.00;;;;;;5096935;28;20451;-58
2023/05/31 01:07:29;;;;;;;0.70;0.47;;;17.90;53.30;;;;;;5096821;28;20464;-59
2023/05/31 01:09:58;;;;;;;1.00;0.50;;;17.90;52.80;;;;;;5097142;28;20429;-59
2023/05/31 01:12:30;;;;;;;1.60;0.43;;;17.70;52.40;;;;;;5097510;28;20424;-59
2023/05/31 01:15:08;;;;;;;1.42;0.45;;;17.60;52.70;;;;;;5097303;28;20433;-58
2023/05/31 01:17:46;;;;;;;1.10;0.43;;;17.60;52.80;;;;;;5096879;28;20479;-59
2023/05/31 01:20:17;;;;;;;0.80;0.47;;;17.50;53.40;;;;;;5096503;28;20717;-59
2023/05/31 01:23:05;;;;;;;0.80;0.43;;;17.60;53.40;;;;;;5096357;28;20794;-58
2023/05/31 01:25:59;;;;;;;1.40;0.50;;;17.60;53.30;;;;;;5097173;28;20422;-58
2023/05/31 01:28:30;;;;;;;0.80;0.40;;;17.60;53.40;;;;;;5096612;28;20432;-60
2023/05/31 01:31:02;;;;;;;1.00;0.40;;;17.60;53.20;;;;;;5096543;28;20453;-59
2023/05/31 01:33:30;;;;;;;0.90;0.50;;;17.50;52.90;;;;;;5096621;28;20421;-60
2023/05/31 01:35:57;;;;;;;0.80;0.40;;;17.40;53.20;;;;;;5096790;28;20434;-58
2023/05/31 01:38:24;;;;;;;1.80;0.45;;;17.40;53.40;;;;;;5096801;28;20830;-59
2023/05/31 01:40:51;;;;;;;1.02;0.50;;;17.40;53.70;;;;;;5096310;28;20434;-59
2023/05/31 01:43:19;;;;;;;0.68;0.40;;;17.30;53.90;;;;;;5094983;28;20433;-59
2023/05/31 01:45:48;;;;;;;1.30;0.50;;;17.30;53.50;;;;;;5096376;28;20467;-60
2023/05/31 01:48:15;;;;;;;0.70;0.40;;;17.30;53.90;;;;;;5096059;28;20425;-59
2023/05/31 01:50:45;;;;;;;1.25;0.50;;;17.30;54.10;;;;;;5096073;28;20488;-59
2023/05/31 01:53:12;;;;;;;0.90;0.50;;;17.30;54.10;;;;;;5096302;28;20426;-58
2023/05/31 01:55:39;;;;;;;0.70;0.40;;;17.40;54.50;;;;;;5096652;28;20447;-59
2023/05/31 01:58:07;;;;;;;0.98;0.40;;;17.30;53.60;;;;;;5096408;28;20418;-58
2023/05/31 02:00:36;;;;;;;1.10;0.60;;;17.40;53.70;;;;;;5095227;28;20414;-59
2023/05/31 02:03:05;;;;;;;0.90;0.50;;;17.30;54.00;;;;;;5096202;28;20422;-59
2023/05/31 02:05:32;;;;;;;0.80;0.40;;;17.30;53.90;;;;;;5095777;28;20730;-59
2023/05/31 02:08:00;;;;;;;1.20;0.40;;;17.20;53.70;;;;;;5096034;28;20714;-60
2023/05/31 02:10:27;;;;;;;1.40;0.50;;;17.10;54.30;;;;;;5095431;28;20434;-59
2023/05/31 02:12:54;;;;;;;1.40;0.50;;;17.10;54.40;;;;;;5095539;28;20425;-59
2023/05/31 02:15:22;;;;;;;1.30;0.50;;;17.10;54.50;;;;;;5096167;28;20498;-60
2023/05/31 02:17:51;;;;;;;1.08;0.40;;;17.10;54.10;;;;;;5095985;28;20801;-59
2023/05/31 02:20:19;;;;;;;0.90;0.50;;;17.10;54.40;;;;;;5096137;28;20433;-60
2023/05/31 02:22:47;;;;;;;1.88;0.40;;;17.20;54.30;;;;;;5095518;28;20425;-60
2023/05/31 02:25:15;;;;;;;0.80;0.50;;;17.20;54.40;;;;;;5095289;28;20877;-59
2023/05/31 02:27:43;;;;;;;0.80;0.40;;;17.20;54.40;;;;;;5095585;28;20509;-59
2023/05/31 02:30:11;;;;;;;1.38;0.40;;;17.20;54.40;;;;;;5095401;28;20462;-59
2023/05/31 02:32:39;;;;;;;1.10;0.47;;;17.30;54.30;;;;;;5094579;28;20429;-58
2023/05/31 02:35:08;;;;;;;0.95;0.40;;;17.20;54.40;;;;;;5094986;28;20426;-58
2023/05/31 02:37:37;;;;;;;0.80;0.40;;;17.20;54.40;;;;;;5095650;28;20430;-59
2023/05/31 02:40:08;;;;;;;1.10;0.50;;;17.20;54.30;;;;;;5095228;28;20430;-58
2023/05/31 02:42:35;;;;;;;0.80;0.40;;;17.10;54.20;;;;;;5095643;28;20414;-59
2023/05/31 02:45:03;;;;;;;0.80;0.47;;;17.20;54.90;;;;;;5095909;28;20730;-59
2023/05/31 02:47:30;;;;;;;0.80;0.47;;;17.10;54.60;;;;;;5095655;28;20528;-59
2023/05/31 02:49:57;;;;;;;1.30;0.47;;;17.10;54.20;;;;;;5094514;28;20833;-58
2023/05/31 02:52:24;;;;;;;1.13;0.40;;;17.10;54.70;;;;;;5095666;28;20426;-58
2023/05/31 02:54:52;;;;;;;0.90;0.40;;;17.20;54.80;;;;;;5094366;28;20495;-59
2023/05/31 02:57:20;;;;;;;2.40;0.50;;;17.10;54.50;;;;;;5094851;28;20437;-59
2023/05/31 02:59:48;;;;;;;1.98;0.47;;;17.00;54.60;;;;;;5095636;28;20430;-59
2023/05/31 03:02:15;;;;;;;0.70;0.40;;;17.00;55.30;;;;;;5094404;28;20729;-58
2023/05/31 03:04:42;;;;;;;0.77;0.40;;;16.90;55.10;;;;;;5093953;28;20502;-59
2023/05/31 03:07:09;;;;;;;0.80;0.40;;;16.90;55.10;;;;;;5095223;28;20465;-59
2023/05/31 03:09:36;;;;;;;0.77;0.40;;;16.80;55.10;;;;;;5095064;28;20422;-58
2023/05/31 03:12:06;;;;;;;0.90;0.40;;;16.80;55.30;;;;;;5093541;28;20749;-59
2023/05/31 03:14:33;;;;;;;0.90;0.40;;;16.90;55.10;;;;;;5092901;28;20434;-58
2023/05/31 03:17:00;;;;;;;1.00;0.40;;;16.90;55.30;;;;;;5092756;28;20747;-58
2023/05/31 03:19:27;;;;;;;1.20;0.40;;;16.90;55.30;;;;;;5091807;28;20436;-58
2023/05/31 03:21:55;;;;;;;2.30;0.50;;;16.80;55.20;;;;;;5091782;28;20425;-58
2023/05/31 03:24:22;;;;;;;0.80;0.50;;;16.80;55.60;;;;;;5091484;28;20418;-58
2023/05/31 03:26:49;;;;;;;1.10;0.40;;;16.90;55.50;;;;;;5090789;28;20422;-60
2023/05/31 03:29:17;;;;;;;0.60;0.40;;;16.80;55.30;;;;;;5092696;28;20533;-59
2023/05/31 03:31:45;;;;;;;1.10;0.40;;;16.70;55.70;;;;;;5093432;28;20717;-59
2023/05/31 03:34:12;;;;;;;1.80;0.40;;;16.70;55.70;;;;;;5094453;28;20760;-59
2023/05/31 03:36:39;;;;;;;1.17;0.50;;;16.70;55.90;;;;;;5094624;28;20437;-59
2023/05/31 03:39:06;;;;;;;0.80;0.43;;;16.70;56.10;;;;;;5095121;28;20430;-62
2023/05/31 03:41:33;;;;;;;0.80;0.40;;;16.70;56.20;;;;;;5095394;28;20518;-58
2023/05/31 03:44:00;;;;;;;0.80;0.40;;;16.60;56.10;;;;;;5094879;28;20433;-59
2023/05/31 03:46:28;;;;;;;0.63;0.40;;;16.50;56.30;;;;;;5096741;28;20421;-59
2023/05/31 03:48:55;;;;;;;0.80;0.40;;;16.60;56.70;;;;;;5097802;28;20418;-58
2023/05/31 03:51:22;;;;;;;1.10;0.40;;;16.60;56.50;;;;;;5099088;28;20418;-59
2023/05/31 03:53:50;;;;;;;1.40;0.50;;;16.60;56.30;;;;;;5097792;28;20426;-59
2023/05/31 03:56:17;;;;;;;1.20;0.60;;;16.60;56.80;;;;;;5097956;28;20442;-59
2023/05/31 03:58:44;;;;;;;2.67;0.50;;;16.60;56.30;;;;;;5097668;28;20433;-56
2023/05/31 04:01:11;;;;;;;1.60;0.45;;;16.60;56.60;;;;;;5096547;28;20704;-59
2023/05/31 04:03:40;;;;;;;1.10;0.50;;;16.50;56.60;;;;;;5095461;28;20633;-58
2023/05/31 04:06:07;;;;;;;1.20;0.50;;;16.50;57.00;;;;;;5095056;28;20705;-59
2023/05/31 04:08:35;;;;;;;1.20;0.40;;;16.50;57.30;;;;;;5094915;28;20421;-55
2023/05/31 04:11:02;;;;;;;0.90;0.40;;;16.40;56.90;;;;;;5095250;28;20461;-58
2023/05/31 04:13:29;;;;;;;0.68;0.40;;;16.40;57.10;;;;;;5095622;28;20437;-58
2023/05/31 04:15:56;;;;;;;0.80;0.40;;;16.40;57.20;;;;;;5096317;28;20422;-60
2023/05/31 04:18:23;;;;;;;1.00;0.40;;;16.30;57.20;;;;;;5096120;28;20484;-59
2023/05/31 04:20:52;;;;;;;1.30;0.50;;;16.40;57.40;;;;;;5097134;28;20718;-60
2023/05/31 04:23:19;;;;;;;1.33;0.50;;;16.30;57.00;;;;;;5097110;28;20513;-57
2023/05/31 04:25:47;;;;;;;1.00;0.50;;;16.30;57.30;;;;;;5097360;28;20436;-56
2023/05/31 04:28:15;;;;;;;1.02;0.50;;;16.30;57.70;;;;;;5096308;28;20418;-59
2023/05/31 04:30:44;;;;;;;0.90;0.40;;;16.40;57.60;;;;;;5095021;28;20437;-58
2023/05/31 04:33:11;;;;;;;0.80;0.40;;;16.40;57.80;;;;;;5096754;28;20837;-57
2023/05/31 04:35:38;;;;;;;1.30;0.50;;;16.40;57.80;;;;;;5095042;28;20465;-58
2023/05/31 04:38:08;;;;;;;1.00;0.40;;;16.50;57.80;;;;;;5096851;28;20536;-57
2023/05/31 04:40:35;;;;;;;1.60;0.40;;;16.40;57.60;;;;;;5095426;28;20669;-59
2023/05/31 04:43:02;;;;;;;1.20;0.50;;;16.50;58.10;;;;;;5095954;28;20853;-59
2023/05/31 04:45:30;;;;;;;0.80;0.40;;;16.60;58.70;;;;;;5096166;28;20421;-57
2023/05/31 04:47:58;;;;;;;1.10;0.40;;;16.60;57.80;;;;;;5096516;28;20514;-58
2023/05/31 04:50:25;;;;;;;0.70;0.40;;;16.60;57.50;;;;;;5096376;28;20502;-58
2023/05/31 04:52:52;;;;;;;1.20;0.50;;;16.70;58.10;;;;;;5094867;28;20444;-59
2023/05/31 04:55:21;;;;;;;0.90;0.47;;;16.70;58.30;;;;;;5094828;28;20486;-58
2023/05/31 04:57:48;;;;;;;1.15;0.50;;;16.80;58.40;;;;;;5094947;28;20426;-59
2023/05/31 05:00:16;;;;;;;2.35;0.50;;;16.90;57.60;;;;;;5095130;28;20418;-58
2023/05/31 05:02:43;;;;;;;0.80;0.40;;;17.00;57.60;;;;;;5095967;28;20426;-59
2023/05/31 05:05:10;;;;;;;1.00;0.50;;;16.90;57.30;;;;;;5095451;28;20469;-59
2023/05/31 05:07:37;;;;;;;1.13;0.40;;;16.80;57.40;;;;;;5095740;28;20457;-58
2023/05/31 05:10:05;;;;;;;0.70;0.40;;;16.80;57.80;;;;;;5094639;28;20430;-60
2023/05/31 05:12:34;;;;;;;1.40;0.60;;;16.80;58.00;;;;;;5093931;28;20418;-60
2023/05/31 05:15:01;;;;;;;0.90;0.40;;;16.80;57.70;;;;;;5095562;28;20426;-58
2023/05/31 05:17:28;;;;;;;0.80;0.40;;;16.80;58.00;;;;;;5095387;28;20721;-59
2023/05/31 05:19:55;;;;;;;0.90;0.40;;;16.90;57.80;;;;;;5095199;28;20430;-59
2023/05/31 05:22:22;;;;;;;2.00;0.40;;;16.90;57.50;;;;;;5096439;28;20437;-59
2023/05/31 05:24:49;;;;;;;1.10;0.40;;;16.90;57.90;;;;;;5095600;28;20422;-58
2023/05/31 05:27:16;;;;;;;1.20;0.45;;;17.00;58.50;;;;;;5094719;28;20700;-58
2023/05/31 05:29:45;;;;;;;0.80;0.50;;;17.00;57.40;;;;;;5093912;28;20425;-58
2023/05/31 05:32:12;;;;;;;0.87;0.47;;;16.90;58.10;;;;;;5093694;28;20429;-59
2023/05/31 05:34:39;;;;;;;1.20;0.47;;;17.00;58.20;;;;;;5093041;28;20433;-58
2023/05/31 05:37:07;;;;;;;0.80;0.40;;;17.00;57.60;;;;;;5093929;28;20433;-58
2023/05/31 05:39:34;;;;;;;0.88;0.50;;;17.00;58.10;;;;;;5094816;28;20428;-59
2023/05/31 05:42:02;;;;;;;0.65;0.40;;;16.90;58.20;;;;;;5094281;28;20430;-58
2023/05/31 05:44:29;;;;;;;1.73;0.45;;;16.90;58.50;;;;;;5094564;28;20432;-59
2023/05/31 05:46:58;;;;;;;1.60;0.60;;;16.80;58.20;;;;;;5094368;28;20787;-59
2023/05/31 05:49:25;;;;;;;1.20;0.70;;;16.70;58.90;;;;;;5090635;28;20735;-59
2023/05/31 05:51:52;;;;;;;1.10;0.50;;;16.70;59.10;;;;;;5092398;28;20422;-59
2023/05/31 05:54:19;;;;;;;1.05;0.60;;;16.80;59.30;;;;;;5093961;28;20418;-58
2023/05/31 05:56:46;;;;;;;1.40;0.50;;;16.90;59.90;;;;;;5093303;28;20593;-59
2023/05/31 05:59:14;;;;;;;0.88;0.40;;;16.90;59.10;;;;;;5095035;28;20494;-59
2023/05/31 06:01:41;;;;;;;0.70;0.40;;;17.00;59.40;;;;;;5092605;28;20818;-59
2023/05/31 06:04:10;;;;;;;0.70;0.40;;;17.30;59.30;;;;;;5092272;28;20434;-58
2023/05/31 06:06:37;;;;;;;0.93;0.50;;;17.50;58.30;;;;;;5092028;28;20725;-58
2023/05/31 06:09:04;;;;;;;0.82;0.50;;;17.50;58.80;;;;;;5090504;28;20486;-61
2023/05/31 06:11:31;;;;;;;1.10;0.50;;;17.40;58.20;;;;;;5091364;28;20727;-60
2023/05/31 06:13:58;;;;;;;0.70;0.40;;;17.40;58.80;;;;;;5099107;28;20489;-59
2023/05/31 06:16:25;;;;;;;1.40;0.50;;;17.50;59.20;;;;;;5107815;28;20870;-59
2023/05/31 06:18:53;;;;;;;1.27;0.50;;;17.70;59.30;;;;;;5108452;28;20454;-59
2023/05/31 06:21:21;;;;;;;1.00;0.50;;;17.90;58.80;;;;;;5110385;28;20424;-59
2023/05/31 06:23:48;;;;;;;1.50;0.60;;;17.90;58.30;;;;;;5092994;28;20908;-59
2023/05/31 06:26:15;;;;;;;1.45;0.47;;;17.80;58.10;;;;;;5091943;28;20757;-59
2023/05/31 06:28:42;;;;;;;0.70;0.40;;;17.70;58.60;;;;;;5091068;28;20422;-58
2023/05/31 06:31:09;;;;;;;0.80;0.40;;;17.80;58.90;;;;;;5090266;28;20434;-59
2023/05/31 06:33:36;;;;;;;0.90;0.55;;;18.00;59.40;;;;;;5091375;28;20852;-59
2023/05/31 06:36:03;;;;;;;0.90;0.45;;;18.20;58.40;;;;;;5107422;28;20440;-58
2023/05/31 06:38:33;;;;;;;2.30;0.50;;;18.20;58.80;;;;;;5113863;28;20454;-59
2023/05/31 06:41:00;;;;;;;1.02;0.70;;;18.30;58.50;;;;;;5091186;28;20508;-59
2023/05/31 06:43:27;;;;;;;1.17;0.50;;;18.50;58.40;;;;;;5091118;28;20821;-59
2023/05/31 06:45:54;;;;;;;0.85;0.50;;;18.50;58.30;;;;;;5090142;28;20864;-59
2023/05/31 06:48:21;;;;;;;1.30;0.50;;;18.60;58.40;;;;;;5091134;28;20505;-59
2023/05/31 06:50:48;;;;;;;1.13;0.50;;;18.70;58.50;;;;;;5090743;28;20425;-62
2023/05/31 06:53:15;;;;;;;1.50;0.50;;;18.80;58.50;;;;;;5100719;28;20526;-58
2023/05/31 06:55:44;;;;;;;1.73;0.50;;;18.80;58.10;;;;;;5094495;28;20436;-59
2023/05/31 06:58:11;;;;;;;1.20;0.50;;;18.80;58.40;;;;;;5095057;28;20455;-60
2023/05/31 07:00:38;;;;;;;2.60;0.60;;;18.80;58.00;;;;;;5090811;28;20418;-59
2023/05/31 07:03:06;;;;;;;1.20;0.60;;;18.90;58.50;;;;;;5090764;28;20433;-60
2023/05/31 07:05:33;;;;;;;1.17;0.52;;;18.90;58.10;;;;;;5088562;28;20444;-59
2023/05/31 07:08:00;;;;;;;1.20;0.60;;;19.00;58.40;;;;;;5089777;28;20749;-59
2023/05/31 07:10:28;;;;;;;1.00;0.50;;;19.10;58.30;;;;;;5088317;28;20433;-59
2023/05/31 07:12:57;;;;;;;1.27;0.60;;;19.20;57.90;;;;;;5091135;28;20640;-59
2023/05/31 07:15:24;;;;;;;1.20;0.50;;;19.30;58.10;;;;;;5077354;28;20430;-60
2023/05/31 07:17:51;;;;;;;1.10;0.50;;;19.40;58.10;;;;;;5090149;28;20873;-59
2023/05/31 07:20:18;;;;;;;1.30;0.50;;;19.40;57.90;;;;;;5091345;28;20434;-59
2023/05/31 07:22:45;;;;;;;0.90;0.80;;;19.30;57.60;;;;;;5092284;28;20433;-58
2023/05/31 07:25:12;;;;;;;1.30;0.50;;;19.40;58.00;;;;;;5091368;28;20517;-60
2023/05/31 07:27:39;;;;;;;1.90;0.43;;;19.60;58.70;;;;;;5091921;28;20437;-59
2023/05/31 07:30:10;;;;;;;1.55;0.60;;;19.70;57.70;;;;;;5089782;28;20433;-59
2023/05/31 07:32:37;;;;;;;1.40;0.50;;;19.80;57.70;;;;;;5093457;28;20860;-59
2023/05/31 07:35:06;;;;;;;0.80;0.50;;;19.80;57.70;;;;;;5099252;28;20892;-59
2023/05/31 07:37:33;;;;;;;0.90;0.50;;;19.80;58.00;;;;;;5091685;28;20491;-59
2023/05/31 07:40:00;;;;;;;0.70;0.50;;;19.90;57.90;;;;;;5107113;28;20496;-59
2023/05/31 07:42:28;;;;;;;1.47;0.60;;;20.00;57.50;;;;;;5109546;28;20669;-59
2023/05/31 07:44:56;;;;;;;2.90;0.50;;;20.10;57.70;;;;;;5093543;28;20441;-58
2023/05/31 07:47:24;;;;;;;2.65;0.60;;;19.90;57.20;;;;;;5089886;28;20426;-58
2023/05/31 07:49:52;;;;;;;1.20;0.50;;;19.90;57.90;;;;;;5100710;28;20436;-59
2023/05/31 07:52:21;;;;;;;1.90;0.60;;;20.10;58.00;;;;;;5110500;28;20628;-59
2023/05/31 07:54:48;;;;;;;1.13;0.50;;;20.30;57.50;;;;;;5092715;28;20429;-59
2023/05/31 07:57:16;;;;;;;1.10;0.50;;;20.50;57.50;;;;;;5090962;28;20451;-60
2023/05/31 07:59:43;;;;;;;0.90;0.50;;;20.60;57.30;;;;;;5109560;28;20454;-58
2023/05/31 08:02:10;;;;;;;1.20;0.60;;;20.60;57.30;;;;;;5103573;28;20440;-59
2023/05/31 08:04:38;;;;;;;1.30;0.50;;;20.70;57.40;;;;;;5087815;28;20430;-60
2023/05/31 08:07:06;;;;;;;0.90;0.50;;;20.70;57.00;;;;;;5089005;28;20436;-59
2023/05/31 08:09:33;;;;;;;1.30;0.50;;;20.80;57.00;;;;;;5088798;28;20705;-59
2023/05/31 08:12:01;;;;;;;0.80;0.50;;;20.90;56.80;;;;;;5088882;28;20437;-59
2023/05/31 08:14:28;;;;;;;1.60;0.50;;;20.90;56.20;;;;;;5090377;28;20430;-59
2023/05/31 08:16:58;;;;;;;1.35;0.60;;;20.90;56.40;;;;;;5090299;28;20453;-59
2023/05/31 08:19:25;;;;;;;1.00;0.50;;;21.00;56.50;;;;;;5091953;28;20445;-59
2023/05/31 08:21:54;;;;;;;1.10;0.50;;;21.10;56.60;;;;;;5105311;28;20437;-59
2023/05/31 08:24:21;;;;;;;1.00;0.50;;;21.20;55.90;;;;;;5104552;28;20432;-59
2023/05/31 08:26:50;;;;;;;1.20;0.50;;;21.20;56.50;;;;;;5111488;28;20855;-60
2023/05/31 08:29:17;;;;;;;2.80;0.55;;;21.20;56.10;;;;;;5089690;28;20464;-59
2023/05/31 08:31:44;;;;;;;1.25;0.60;;;21.20;56.10;;;;;;5089178;28;20452;-59
2023/05/31 08:34:11;;;;;;;0.90;0.50;;;21.40;56.20;;;;;;5090610;28;20472;-59
2023/05/31 08:36:40;;;;;;;1.25;0.60;;;21.70;56.10;;;;;;5090364;28;20640;-59
2023/05/31 08:39:08;;;;;;;0.90;0.60;;;21.80;55.70;;;;;;5091754;28;20436;-59
2023/05/31 08:41:43;;;;;;;1.57;0.50;;;21.90;55.30;;;;;;5090565;28;20885;-58
2023/05/31 08:44:12;;;;;;;1.40;0.50;;;21.70;55.90;;;;;;5094066;28;20414;-59
2023/05/31 08:46:40;;;;;;;0.87;0.50;;;21.90;55.90;;;;;;5106173;28;20482;-59
2023/05/31 08:49:11;;;;;;;1.23;0.50;;;22.00;55.70;;;;;;5106524;28;20777;-58
2023/05/31 08:51:41;;;;;;;3.00;0.60;;;22.20;55.30;;;;;;5091904;28;20421;-59
2023/05/31 08:54:11;;;;;;;1.00;0.70;;;22.20;55.00;;;;;;5093721;28;20579;-59
2023/05/31 08:56:39;;;;;;;4.65;0.77;;;22.20;54.90;;;;;;5093496;28;21445;-57
2023/05/31 08:59:09;;;;;;;4.10;0.60;;;22.10;55.60;;;;;;5093277;28;20426;-59
2023/05/31 09:01:37;;;;;;;1.40;0.50;;;22.30;55.00;;;;;;5096083;28;20437;-57
2023/05/31 09:04:06;;;;;;;1.30;0.60;;;22.50;55.20;;;;;;5092291;28;20449;-57
2023/05/31 09:06:34;;;;;;;1.73;0.60;;;22.60;54.90;;;;;;5092353;28;20422;-55
2023/05/31 09:09:01;;;;;;;1.20;0.60;;;22.60;55.00;;;;;;5093261;28;20437;-56
2023/05/31 09:11:30;;;;;;;1.00;0.60;;;22.70;54.60;;;;;;5095327;28;20825;-58
2023/05/31 09:13:57;;;;;;;1.40;0.50;;;22.80;54.50;;;;;;5108921;28;20447;-57
2023/05/31 09:16:25;;;;;;;0.98;0.57;;;22.90;54.00;;;;;;5108028;28;20443;-58
2023/05/31 09:19:00;;;;;;;1.60;0.57;;;23.10;54.00;;;;;;5114758;28;20464;-59
2023/05/31 09:21:27;;;;;;;9.48;1.10;;;23.10;53.10;;;;;;5111420;28;20926;-56
2023/05/31 09:23:56;;;;;;;4.18;0.70;;;23.10;53.50;;;;;;5112817;28;20435;-60
2023/05/31 09:26:24;;;;;;;1.15;0.68;;;23.10;53.70;;;;;;5102364;28;20436;-57
2023/05/31 09:28:54;;;;;;;0.70;0.50;;;23.10;53.50;;;;;;5104777;28;20451;-58
2023/05/31 09:31:21;;;;;;;9.60;0.90;;;23.20;52.70;;;;;;5099490;28;20837;-56
2023/05/31 09:33:50;;;;;;;1.13;0.50;;;23.30;53.50;;;;;;5099196;28;20436;-59
2023/05/31 09:36:25;;;;;;;1.40;0.68;;;23.30;53.30;;;;;;5113250;28;20420;-59
2023/05/31 09:39:00;;;;;;;1.50;0.60;;;23.50;52.80;;;;;;5091249;28;20473;-59
2023/05/31 09:41:28;;;;;;;2.38;0.60;;;23.50;52.60;;;;;;5093812;28;20441;-58
2023/05/31 09:43:57;;;;;;;1.20;0.50;;;23.60;52.90;;;;;;5091616;28;20434;-59
2023/05/31 09:46:26;;;;;;;2.00;0.60;;;23.80;51.00;;;;;;5091895;28;20433;-59
2023/05/31 09:49:00;;;;;;;0.90;0.52;;;23.90;50.40;;;;;;5094077;28;20437;-59
2023/05/31 09:51:28;;;;;;;0.90;0.50;;;23.80;51.10;;;;;;5092029;28;20441;-59
2023/05/31 09:53:56;;;;;;;1.15;0.55;;;23.80;50.50;;;;;;5093846;28;20441;-58
2023/05/31 09:56:25;;;;;;;2.00;0.50;;;23.90;50.10;;;;;;5103081;28;20435;-58
2023/05/31 09:58:52;;;;;;;0.82;0.50;;;24.00;49.40;;;;;;5094555;28;20434;-59
2023/05/31 10:01:21;;;;;;;1.90;0.50;;;24.10;49.00;;;;;;5101175;28;20428;-58
2023/05/31 10:03:49;;;;;;;1.40;0.67;;;24.20;49.90;;;;;;5090347;28;20858;-58
2023/05/31 10:06:17;;;;;;;1.50;0.60;;;24.40;48.70;;;;;;5099272;28;20447;-57
2023/05/31 10:08:46;;;;;;;0.90;0.60;;;24.70;48.10;;;;;;5090575;28;20433;-57
2023/05/31 10:11:17;;;;;;;1.02;0.50;;;24.80;48.20;;;;;;5100072;28;20435;-56
2023/05/31 10:13:46;;;;;;;2.00;0.60;;;24.90;47.30;;;;;;5108503;28;20436;-55
2023/05/31 10:16:15;;;;;;;1.10;0.60;;;25.20;46.90;;;;;;5102209;28;20729;-58
2023/05/31 10:18:46;;;;;;;1.20;0.60;;;25.20;47.70;;;;;;5091888;28;20430;-58
2023/05/31 10:21:22;;;;;;;0.90;0.50;;;25.40;47.30;;;;;;5099653;28;20925;-58
2023/05/31 10:23:56;;;;;;;1.70;0.60;;;25.50;45.90;;;;;;5101034;28;20669;-57
2023/05/31 10:26:27;;;;;;;1.20;0.50;;;25.70;45.20;;;;;;5101530;28;20501;-60
2023/05/31 10:29:00;;;;;;;0.95;0.50;;;26.00;45.30;;;;;;5093971;28;20444;-58
2023/05/31 10:31:42;;;;;;;1.10;0.60;;;26.10;46.10;;;;;;5096509;28;20742;-58
2023/05/31 10:34:19;;;;;;;2.53;1.10;;;26.50;45.20;;;;;;5094219;28;20934;-58
2023/05/31 10:36:47;;;;;;;0.82;0.60;;;26.80;44.80;;;;;;5101502;28;20451;-58
2023/05/31 10:39:20;;;;;;;1.53;0.60;;;27.00;43.90;;;;;;5092818;28;20461;-58
2023/05/31 10:41:54;;;;;;;0.80;0.50;;;27.20;42.80;;;;;;5100175;28;20876;-59
2023/05/31 10:44:31;;;;;;;0.70;0.40;;;27.10;42.50;;;;;;5100889;28;20436;-57
2023/05/31 10:47:04;;;;;;;1.00;0.60;;;27.20;41.50;;;;;;5092063;28;20792;-58
2023/05/31 10:49:36;;;;;;;1.70;0.50;;;27.00;42.30;;;;;;5092107;28;20437;-58
2023/05/31 10:52:07;;;;;;;2.10;0.60;;;27.00;42.00;;;;;;5099727;28;20771;-58
2023/05/31 10:54:34;;;;;;;1.00;0.60;;;27.00;42.40;;;;;;5089366;28;20422;-58
2023/05/31 10:57:05;;;;;;;1.10;0.50;;;27.20;42.10;;;;;;5097758;28;20442;-59
2023/05/31 10:59:42;;;;;;;0.70;0.50;;;27.30;41.70;;;;;;5090115;28;20738;-58
2023/05/31 11:02:10;;;;;;;2.00;0.50;;;27.40;41.70;;;;;;5096538;28;20463;-58
2023/05/31 11:04:39;;;;;;;1.10;0.40;;;27.60;41.30;;;;;;5110380;28;20419;-58
2023/05/31 11:07:21;;;;;;;1.60;0.50;;;27.50;40.40;;;;;;5107687;28;20497;-59
2023/05/31 11:09:59;;;;;;;1.70;0.50;;;27.30;40.90;;;;;;5088055;28;20430;-58
2023/05/31 11:12:34;;;;;;;1.08;0.65;;;27.70;40.10;;;;;;5100827;28;20433;-60
2023/05/31 11:15:03;;;;;;;0.90;0.60;;;27.80;40.00;;;;;;5108333;28;20420;-58
2023/05/31 11:17:39;;;;;;;1.40;0.60;;;28.20;40.30;;;;;;5091477;28;20488;-58
2023/05/31 11:20:15;;;;;;;1.63;0.50;;;28.50;40.00;;;;;;5090476;28;20514;-58
2023/05/31 11:22:42;;;;;;;0.80;0.50;;;28.70;39.00;;;;;;5088431;28;20418;-59
2023/05/31 11:25:18;;;;;;;0.70;0.50;;;28.50;39.10;;;;;;5088775;28;20459;-59
2023/05/31 11:27:48;;;;;;;2.10;0.50;;;28.50;38.50;;;;;;5089381;28;20422;-58
2023/05/31 11:30:16;;;;;;;0.80;0.50;;;27.50;38.90;;;;;;5092103;28;20503;-60
2023/05/31 11:32:59;;;;;;;1.00;0.60;;;27.10;39.00;;;;;;5097447;28;20439;-58
2023/05/31 11:35:32;;;;;;;1.30;0.50;;;27.60;40.30;;;;;;5108201;28;20929;-58
2023/05/31 11:38:04;;;;;;;1.50;0.50;;;27.90;39.40;;;;;;5108702;28;20441;-58
2023/05/31 11:40:32;;;;;;;0.73;0.50;;;27.70;39.40;;;;;;5097930;28;20483;-57
2023/05/31 11:43:11;;;;;;;1.80;0.50;;;28.10;38.70;;;;;;5098383;28;20447;-58
2023/05/31 11:45:45;;;;;;;1.50;0.50;;;28.60;38.40;;;;;;5112146;28;20424;-58
2023/05/31 11:48:32;;;;;;;1.67;0.57;;;29.00;37.20;;;;;;5101347;28;20589;-58
2023/05/31 11:51:01;;;;;;;1.30;0.50;;;28.90;38.20;;;;;;5096485;28;20774;-58
2023/05/31 11:53:28;;;;;;;1.35;0.50;;;28.50;37.50;;;;;;5099156;28;20444;-59
2023/05/31 11:55:58;;;;;;;1.10;0.40;;;28.40;38.60;;;;;;5091386;28;20438;-59
2023/05/31 11:58:27;;;;;;;0.80;0.50;;;28.50;37.60;;;;;;5105706;28;21126;-58
2023/05/31 12:00:58;;;;;;;0.90;0.40;;;28.80;37.10;;;;;;5098980;28;20482;-59
2023/05/31 12:03:25;;;;;;;1.02;0.50;;;29.00;37.50;;;;;;5094896;28;20508;-57
2023/05/31 12:05:58;;;;;;;1.00;0.50;;;29.30;37.50;;;;;;5096772;28;20457;-60
2023/05/31 12:08:28;;;;;;;1.27;0.50;;;29.30;36.90;;;;;;5096477;28;20520;-59
2023/05/31 12:11:02;;;;;;;1.20;0.40;;;29.00;36.90;;;;;;5114937;28;20789;-58
2023/05/31 12:13:30;;;;;;;0.73;0.50;;;29.10;36.90;;;;;;5108810;28;20557;-58
2023/05/31 12:15:57;;;;;;;0.82;0.50;;;29.20;36.90;;;;;;5094104;28;20424;-59
2023/05/31 12:18:24;;;;;;;1.02;0.50;;;28.90;36.40;;;;;;5093244;28;20904;-58
2023/05/31 12:20:51;;;;;;;2.10;0.60;;;29.10;36.30;;;;;;5095213;28;20833;-58
2023/05/31 12:23:19;;;;;;;0.70;0.40;;;29.10;36.20;;;;;;5094635;28;20859;-59
2023/05/31 12:25:49;;;;;;;1.00;0.40;;;29.00;36.30;;;;;;5093267;28;20467;-59
2023/05/31 12:28:21;;;;;;;0.60;0.40;;;28.50;36.90;;;;;;5095141;28;20425;-58
2023/05/31 12:30:51;;;;;;;1.30;0.50;;;28.70;36.30;;;;;;5094283;28;20455;-60
2023/05/31 12:33:18;;;;;;;0.68;0.43;;;28.90;37.10;;;;;;5094668;28;20507;-59
2023/05/31 12:35:46;;;;;;;1.40;0.40;;;28.90;36.60;;;;;;5094339;28;20436;-59
2023/05/31 12:38:13;;;;;;;1.17;0.50;;;28.80;36.20;;;;;;5092134;28;20524;-61
2023/05/31 12:40:42;;;;;;;0.70;0.50;;;28.80;35.30;;;;;;5092020;28;20438;-58
2023/05/31 12:43:14;;;;;;;0.70;0.40;;;28.70;35.20;;;;;;5092385;28;20425;-59
2023/05/31 12:45:42;;;;;;;0.70;0.47;;;28.60;34.30;;;;;;5102851;28;20431;-59
2023/05/31 12:48:11;;;;;;;1.00;0.40;;;28.90;34.80;;;;;;5100741;28;20418;-58
2023/05/31 12:50:43;;;;;;;1.00;0.47;;;29.30;33.20;;;;;;5110637;28;20522;-59
2023/05/31 12:53:11;;;;;;;0.80;0.45;;;29.40;33.60;;;;;;5100566;28;20487;-59
2023/05/31 12:55:38;;;;;;;1.10;0.40;;;29.30;34.00;;;;;;5107254;28;20431;-59